Flight Track Log - Related Links

Times and Time Zones

All times are in EST time to prevent confusion due to time zone crossing. See the JBU100 flight status page for this flight to view local times or setup timezone preferences in your user account.

Time Position Orientation Groundspeed Altitude Reporting Facility
EST Latitude Longitude Course Direction KTS MPH feet Rate Location/Type
Mon 01:53:38 AM 33.9403 -118.4553 90° East 170 196 1,600  Level Los Angeles Center
Mon 01:54:39 AM 33.9025 -118.4842 212° Southwest 202 232 2,500 2,016 Climbing Los Angeles Center
Mon 01:55:40 AM 33.8158 -118.5008 189° South 261 300 5,700 2,926 Climbing Los Angeles Center
Mon 01:56:00 AM 33.9134 -117.7776 90° East  Level Estimated
Mon 01:56:40 AM 33.7411 -118.5100 186° South 274 315 8,400  Level Los Angeles Center
Mon 01:57:00 AM 33.7858 -117.7421 167° South  Level FlightAware Approximate
Mon 01:57:41 AM 33.6906 -118.4383 130° Southeast 291 335 10,400  Level Los Angeles Center
Mon 01:58:00 AM 33.7784 -117.5848 90° East  Level Estimated
Mon 01:58:42 AM 33.6533 -118.3394 114° Southeast 332 382 11,400  Level Los Angeles Center
Mon 01:59:43 AM 33.6539 -118.2192 90° East 367 422 13,400 1,983 Climbing Los Angeles Center
Mon 02:00:43 AM 33.6478 -118.0939 93° East 378 435 15,400 1,983 Climbing Los Angeles Center
Mon 02:01:44 AM 33.6297 -117.9372 98° East 395 455 17,400 1,721 Climbing Los Angeles Center
Mon 02:02:45 AM 33.6156 -117.8028 97° East 406 467 18,900 1,525 Climbing Los Angeles Center
Mon 02:03:46 AM 33.6003 -117.6625 97° East 422 486 20,500 1,488 Climbing Los Angeles Center
Mon 02:04:46 AM 33.5844 -117.5183 97° East 435 501 21,900 1,339 Climbing Los Angeles Center
Mon 02:05:47 AM 33.5681 -117.3719 98° East 443 510 23,200 1,279 Climbing Los Angeles Center
Mon 02:06:48 AM 33.5517 -117.2222 97° East 452 520 24,500 1,180 Climbing Los Angeles Center
Mon 02:07:49 AM 33.5375 -117.0850 97° East 458 527 25,600 984 Climbing Los Angeles Center
Mon 02:08:50 AM 33.5322 -116.9300 92° East 465 535 26,500 942 Climbing Los Angeles Center
Mon 02:09:50 AM 33.5242 -116.7719 93° East 473 544 27,500 1,041 Climbing Los Angeles Center
Mon 02:10:51 AM 33.5144 -116.5786 93° East 482 555 28,600 984 Climbing Los Angeles Center
Mon 02:11:52 AM 33.5061 -116.4153 93° East 487 560 29,500 934 Climbing Los Angeles Center
Mon 02:12:53 AM 33.4969 -116.2517 94° East 489 563 30,500 1,041 Climbing Los Angeles Center
Mon 02:13:53 AM 33.4878 -116.0894 94° East 488 562 31,600 1,091 Climbing Los Angeles Center
Mon 02:14:54 AM 33.4786 -115.9272 94° East 487 560 32,700 934 Climbing Los Angeles Center
Mon 02:15:55 AM 33.4686 -115.7678 94° East 483 556 33,500 893 Climbing Los Angeles Center
Mon 02:16:55 AM 33.4589 -115.6106 94° East 477 549 34,500 744 Climbing Los Angeles Center
Mon 02:17:56 AM 33.4494 -115.4533 94° East 474 545 35,000 246 Climbing Los Angeles Center
Mon 02:18:57 AM 33.4394 -115.2986 94° East 470 541 35,000  Level Los Angeles Center
Mon 02:19:58 AM 33.4297 -115.1444 94° East 466 536 35,000  Level Los Angeles Center
Mon 02:20:58 AM 33.4192 -114.9903 95° East 465 535 35,000  Level Los Angeles Center
Mon 02:21:59 AM 33.4061 -114.8356 96° East 467 537 35,000  Level Los Angeles Center
Mon 02:23:00 AM 33.3961 -114.6822 94° East 465 535 35,000  Level Los Angeles Center
Mon 02:24:00 AM 33.3864 -114.5292 94° East 462 532 35,000  Level Los Angeles Center
Mon 02:24:58 AM 33.3761 -114.3714 94° East 463 533 35,000  Level Albuquerque Center
Mon 02:25:59 AM 33.3672 -114.2164 94° East 464 534 35,000  Level Albuquerque Center
Mon 02:26:59 AM 33.3567 -114.0656 95° East 458 527 35,000 -50 Level Albuquerque Center
Mon 02:27:59 AM 33.3464 -113.9136 95° East 458 527 34,900  Descending Albuquerque Center
Mon 02:29:00 AM 33.3333 -113.7622 96° East 459 528 35,000 50 Climbing Albuquerque Center
Mon 02:30:00 AM 33.3217 -113.6108 95° East 458 527 35,000  Level Albuquerque Center
Mon 02:31:00 AM 33.3100 -113.4597 95° East 456 525 35,000  Level Albuquerque Center
Mon 02:32:01 AM 33.2975 -113.3092 96° East 455 524 35,000 -50 Level Albuquerque Center
Mon 02:33:01 AM 33.2858 -113.1603 95° East 452 520 34,900 -50 Descending Albuquerque Center
Mon 02:34:01 AM 33.2733 -113.0125 96° East 449 517 34,900  Level Albuquerque Center
Mon 02:35:02 AM 33.2606 -112.8622 96° East 451 519 34,900 50 Level Albuquerque Center
Mon 02:36:02 AM 33.2481 -112.7125 96° East 452 520 35,000 50 Climbing Albuquerque Center
Mon 02:37:02 AM 33.2372 -112.5717 95° East 455 524 35,000  Level Albuquerque Center
Mon 02:38:03 AM 33.2239 -112.4206 96° East 460 529 35,000  Level Albuquerque Center
Mon 02:39:03 AM 33.2100 -112.2703 96° East 459 528 35,000  Level Albuquerque Center
Mon 02:40:03 AM 33.1972 -112.1200 96° East 459 528 35,000  Level Albuquerque Center
Mon 02:41:03 AM 33.1839 -111.9714 96° East 457 526 35,000  Level Albuquerque Center
Mon 02:42:04 AM 33.1700 -111.8222 96° East 456 525 35,000  Level Albuquerque Center
Mon 02:43:04 AM 33.1558 -111.6711 96° East 459 528 35,000  Level Albuquerque Center
Mon 02:44:04 AM 33.1419 -111.5211 96° East 460 529 35,000  Level Albuquerque Center
Mon 02:45:05 AM 33.1244 -111.3411 97° East 459 528 35,000  Level Albuquerque Center
Mon 02:46:05 AM 33.1100 -111.1894 96° East 463 533 35,000 50 Level Albuquerque Center
Mon 02:47:05 AM 33.0950 -111.0367 97° East 466 536 35,100  Climbing Albuquerque Center
Mon 02:48:06 AM 33.0808 -110.8844 96° East 466 536 35,000 -50 Descending Albuquerque Center
Mon 02:49:06 AM 33.0658 -110.7328 97° East 463 533 35,000  Level Albuquerque Center
Mon 02:50:06 AM 33.0500 -110.5897 97° East 458 527 35,000  Level Albuquerque Center
Mon 02:51:06 AM 33.0353 -110.4389 97° East 458 527 35,000  Level Albuquerque Center
Mon 02:52:07 AM 33.0200 -110.2886 97° East 459 528 35,000  Level Albuquerque Center
Mon 02:53:07 AM 33.0028 -110.1369 98° East 462 532 35,000  Level Albuquerque Center
Mon 02:54:07 AM 32.9881 -109.9844 97° East 462 532 35,000  Level Albuquerque Center
Mon 02:55:08 AM 32.9708 -109.8319 98° East 466 536 35,000  Level Albuquerque Center
Mon 02:56:08 AM 32.9539 -109.6786 97° East 468 539 35,000  Level Albuquerque Center
Mon 02:57:08 AM 32.9356 -109.5261 98° East 467 537 35,000  Level Albuquerque Center
Mon 02:58:09 AM 32.9183 -109.3719 98° East 471 542 35,000  Level Albuquerque Center
Mon 02:59:09 AM 32.9008 -109.2197 98° East 469 540 35,000 -50 Level Albuquerque Center
Mon 03:00:09 AM 32.8828 -109.0625 98° East 466 536 34,900 -50 Descending Albuquerque Center
Mon 03:01:10 AM 32.8622 -108.9081 99° East 470 541 34,900 50 Level Albuquerque Center
Mon 03:02:10 AM 32.8450 -108.7381 97° East 472 543 35,000 50 Climbing Albuquerque Center
Mon 03:03:10 AM 32.8267 -108.5842 98° East 473 544 35,000  Level Albuquerque Center
Mon 03:04:11 AM 32.8078 -108.4278 98° East 477 549 35,000  Level Albuquerque Center
Mon 03:05:11 AM 32.7883 -108.2722 98° East 479 551 35,000  Level Albuquerque Center
Mon 03:06:11 AM 32.7703 -108.1283 98° East 482 555 35,000  Level Albuquerque Center
Mon 03:07:11 AM 32.7503 -107.9703 99° East 484 557 35,000  Level Albuquerque Center
Mon 03:08:12 AM 32.7311 -107.8100 98° East 488 562 35,000  Level Albuquerque Center
Mon 03:09:12 AM 32.7106 -107.6497 99° East 490 564 35,000  Level Albuquerque Center
Mon 03:10:12 AM 32.6894 -107.4767 98° East 491 565 35,000  Level Albuquerque Center
Mon 03:11:13 AM 32.6711 -107.3161 98° East 492 566 35,000 -50 Level Albuquerque Center
Mon 03:12:13 AM 32.6475 -107.1478 99° East 491 565 34,900  Descending Albuquerque Center
Mon 03:13:13 AM 32.6261 -106.9872 99° East 493 567 35,000 50 Climbing Albuquerque Center
Mon 03:14:14 AM 32.6075 -106.8375 98° East 493 567 35,000  Level Albuquerque Center
Mon 03:15:14 AM 32.5844 -106.6767 100° East 492 566 35,000  Level Albuquerque Center
Mon 03:16:14 AM 32.5639 -106.5167 99° East 490 564 35,000 -50 Level Albuquerque Center
Mon 03:17:15 AM 32.5406 -106.3567 100° East 492 566 34,900  Descending Albuquerque Center
Mon 03:18:15 AM 32.5172 -106.1858 99° East 494 568 35,000 50 Climbing Albuquerque Center
Mon 03:19:15 AM 32.4944 -106.0247 99° East 497 572 35,000  Level Albuquerque Center
Mon 03:20:16 AM 32.4717 -105.8656 100° East 492 566 35,000  Level Albuquerque Center
Mon 03:21:16 AM 32.4489 -105.7036 99° East 496 571 35,000 -50 Level Albuquerque Center
Mon 03:22:16 AM 32.4261 -105.5436 100° East 495 570 34,900 50 Descending Albuquerque Center
Mon 03:23:17 AM 32.4031 -105.3822 100° East 496 571 35,100 446 Climbing Albuquerque Center
Mon 03:24:17 AM 32.3797 -105.2219 100° East 495 570 35,800 450 Climbing Albuquerque Center
Mon 03:25:17 AM 32.3556 -105.0631 100° East 492 566 36,000 100 Climbing Albuquerque Center
Mon 03:26:17 AM 32.3317 -104.8997 100° East 499 574 36,000  Level Albuquerque Center
Mon 03:27:18 AM 32.3081 -104.7358 100° East 503 579 36,000 -50 Level Albuquerque Center
Mon 03:28:18 AM 32.2828 -104.5739 100° East 502 578 35,900  Descending Albuquerque Center
Mon 03:29:18 AM 32.2583 -104.4139 100° East 499 574 36,000 50 Climbing Albuquerque Center
Mon 03:30:19 AM 32.2350 -104.2531 100° East 496 571 36,000  Level Albuquerque Center
Mon 03:31:19 AM 32.2086 -104.0925 101° East 498 573 36,000  Level Albuquerque Center
Mon 03:32:19 AM 32.1822 -103.9214 100° East 498 573 36,000  Level Albuquerque Center
Mon 03:33:20 AM 32.1569 -103.7628 101° East 495 570 36,000  Level Albuquerque Center
Mon 03:34:20 AM 32.1317 -103.6053 101° East 495 570 36,000  Level Albuquerque Center
Mon 03:35:20 AM 32.1050 -103.4456 101° East 496 571 36,000  Level Albuquerque Center
Mon 03:36:21 AM 32.0808 -103.2867 100° East 497 572 36,000  Level Albuquerque Center
Mon 03:37:21 AM 32.0550 -103.1272 101° East 497 572 36,000  Level Albuquerque Center
Mon 03:38:21 AM 32.0269 -102.9603 101° East 503 579 36,000  Level Albuquerque Center
Mon 03:39:11 AM 32.0042 -102.8314 102° East 500 575 36,000  Level Fort Worth Center
Mon 03:40:11 AM 31.9775 -102.6692 101° East 503 579 36,000  Level Fort Worth Center
Mon 03:41:11 AM 31.9497 -102.5069 101° East 504 580 36,000  Level Fort Worth Center
Mon 03:42:11 AM 31.9228 -102.3447 101° East 505 581 36,000  Level Fort Worth Center
Mon 03:43:12 AM 31.8942 -102.1836 102° East 503 579 36,000  Level Fort Worth Center
Mon 03:44:12 AM 31.8675 -102.0219 101° East 499 574 36,000  Level Fort Worth Center
Mon 03:45:12 AM 31.8386 -101.8611 102° East 499 574 36,000 -50 Level Fort Worth Center
Mon 03:46:12 AM 31.8100 -101.7014 102° East 498 573 35,900  Descending Fort Worth Center
Mon 03:47:12 AM 31.7811 -101.5428 102° East 496 571 36,000 50 Climbing Fort Worth Center
Mon 03:48:12 AM 31.7533 -101.3831 102° East 497 572 36,000  Level Fort Worth Center
Mon 03:49:12 AM 31.7247 -101.2239 102° East 497 572 36,000  Level Fort Worth Center
Mon 03:50:13 AM 31.6958 -101.0644 102° East 499 574 36,000  Level Fort Worth Center
Mon 03:51:13 AM 31.6661 -100.9047 102° East 500 575 36,000  Level Fort Worth Center
Mon 03:52:13 AM 31.6364 -100.7444 102° East 503 579 36,000  Level Fort Worth Center
Mon 03:53:13 AM 31.6097 -100.5983 102° East 502 578 36,000  Level Fort Worth Center
Mon 03:54:13 AM 31.5803 -100.4389 102° East 501 577 36,000  Level Fort Worth Center
Mon 03:55:13 AM 31.5497 -100.2803 103° East 499 574 36,000  Level Fort Worth Center
Mon 03:56:14 AM 31.5194 -100.1192 102° East 501 577 36,000  Level Houston Center
Mon 03:57:14 AM 31.4897 -99.9597 102° East 503 579 36,000  Level Houston Center
Mon 03:58:14 AM 31.4542 -99.7783 103° East 504 580 36,000 -50 Level Houston Center
Mon 03:59:14 AM 31.4275 -99.6411 103° East 501 577 35,900  Descending Houston Center
Mon 04:00:14 AM 31.3972 -99.4836 103° East 505 581 36,000 50 Climbing Houston Center
Mon 04:01:15 AM 31.3664 -99.3228 103° East 503 579 36,000 50 Level Houston Center
Mon 04:02:15 AM 31.3336 -99.1631 103° East 501 577 36,100 500 Climbing Houston Center
Mon 04:03:15 AM 31.3028 -99.0033 103° East 501 577 37,000 450 Climbing Houston Center
Mon 04:04:15 AM 31.2711 -98.8475 103° East 492 566 37,000  Level Houston Center
Mon 04:05:15 AM 31.2394 -98.6911 103° East 491 565 37,000  Level Houston Center
Mon 04:06:15 AM 31.2075 -98.5344 103° East 491 565 37,000  Level Houston Center
Mon 04:07:15 AM 31.1750 -98.3781 104° East 492 566 37,000  Level Houston Center
Mon 04:08:16 AM 31.1433 -98.2211 103° East 492 566 37,000  Level Houston Center
Mon 04:09:16 AM 31.1100 -98.0656 104° East 492 566 37,000  Level Houston Center
Mon 04:10:16 AM 31.0783 -97.9117 103° East 486 559 37,000  Level Houston Center
Mon 04:11:16 AM 31.0453 -97.7572 104° East 489 563 37,000  Level Fort Worth Center
Mon 04:12:16 AM 31.0131 -97.6008 103° East 490 564 37,000  Level Houston Center
Mon 04:13:16 AM 30.9794 -97.4458 104° East 489 563 37,000  Level Houston Center
Mon 04:14:17 AM 30.9508 -97.3108 104° East 491 565 37,000  Level Houston Center
Mon 04:15:17 AM 30.9161 -97.1442 104° East 497 572 37,000  Level Houston Center
Mon 04:16:17 AM 30.8822 -96.9894 104° East 493 567 37,000  Level Houston Center
Mon 04:17:17 AM 30.8483 -96.8364 104° East 487 560 37,000  Level Houston Center
Mon 04:18:17 AM 30.8153 -96.6808 104° East 490 564 37,000  Level Houston Center
Mon 04:19:17 AM 30.7794 -96.5244 105° East 495 570 37,000  Level Houston Center
Mon 04:20:18 AM 30.7442 -96.3681 105° East 495 570 37,000  Level Houston Center
Mon 04:21:18 AM 30.7092 -96.2103 104° East 500 575 37,000  Level Houston Center
Mon 04:22:18 AM 30.6747 -96.0536 104° East 496 571 37,000  Level Houston Center
Mon 04:23:18 AM 30.6381 -95.8978 105° East 494 568 37,000  Level Houston Center
Mon 04:24:18 AM 30.6042 -95.7447 104° East 490 564 37,000  Level Houston Center
Mon 04:25:18 AM 30.5694 -95.5917 105° East 490 564 37,000  Level Houston Center
Mon 04:26:19 AM 30.5344 -95.4378 105° East 492 566 37,000  Level Houston Center
Mon 04:27:19 AM 30.5019 -95.3006 105° East 495 570 37,000  Level Houston Center
Mon 04:28:19 AM 30.4661 -95.1475 105° East 496 571 37,000  Level Houston Center
Mon 04:29:19 AM 30.4236 -94.9725 106° East 499 574 37,000  Level Houston Center
Mon 04:30:19 AM 30.3856 -94.8186 106° East 497 572 37,000  Level Houston Center
Mon 04:31:19 AM 30.3464 -94.6633 106° East 499 574 37,000  Level Houston Center
Mon 04:32:20 AM 30.3086 -94.5089 106° East 498 573 37,000 -50 Level Houston Center
Mon 04:33:20 AM 30.2717 -94.3567 106° East 497 572 36,900  Descending Houston Center
Mon 04:34:20 AM 30.2322 -94.2033 107° East 498 573 37,000 50 Climbing Houston Center
Mon 04:35:20 AM 30.1936 -94.0508 106° East 498 573 37,000  Level Houston Center
Mon 04:36:20 AM 30.1553 -93.8975 106° East 500 575 37,000  Level Houston Center
Mon 04:37:20 AM 30.1156 -93.7456 107° East 500 575 37,000  Level Houston Center
Mon 04:38:21 AM 30.0644 -93.6006 112° Southeast 500 575 37,000  Level Houston Center
Mon 04:39:21 AM 30.0036 -93.4592 116° Southeast 498 573 37,000  Level Houston Center
Mon 04:40:21 AM 29.9392 -93.3203 118° Southeast 496 571 37,000  Level Houston Center
Mon 04:41:21 AM 29.8747 -93.1792 118° Southeast 500 575 37,000  Level Houston Center
Mon 04:42:21 AM 29.8103 -93.0389 118° Southeast 500 575 37,000  Level Houston Center
Mon 04:43:21 AM 29.7428 -92.9006 119° Southeast 498 573 37,000  Level Houston Center
Mon 04:44:21 AM 29.6744 -92.7639 120° Southeast 496 571 37,000  Level Houston Center
Mon 04:45:22 AM 29.6106 -92.6236 118° Southeast 495 570 37,000  Level Houston Center
Mon 04:46:22 AM 29.5464 -92.4844 118° Southeast 495 570 37,000  Level Houston Center
Mon 04:47:22 AM 29.4819 -92.3447 118° Southeast 495 570 37,000  Level Houston Center
Mon 04:48:22 AM 29.4181 -92.2056 118° Southeast 494 568 37,000  Level Houston Center
Mon 04:49:22 AM 29.3533 -92.0664 118° Southeast 495 570 37,000  Level Houston Center
Mon 04:50:22 AM 29.2881 -91.9275 118° Southeast 496 571 37,000  Level Houston Center
Mon 04:51:22 AM 29.2306 -91.7850 115° Southeast 494 568 37,000  Level Houston Center
Mon 04:52:23 AM 29.1864 -91.6111 106° East 501 577 37,000  Level Houston Center
Mon 04:53:23 AM 29.1500 -91.4581 105° East 500 575 37,000  Level Houston Center
Mon 04:54:23 AM 29.1119 -91.3053 106° East 502 578 37,000  Level Houston Center
Mon 04:55:23 AM 29.0744 -91.1536 106° East 499 574 37,000  Level Houston Center
Mon 04:56:23 AM 29.0364 -91.0017 106° East 499 574 37,000 -50 Level Houston Center
Mon 04:57:23 AM 28.9986 -90.8506 106° East 497 572 36,900  Descending Houston Center
Mon 04:58:23 AM 28.9608 -90.6997 106° East 497 572 37,000 50 Climbing Houston Center
Mon 04:59:23 AM 28.9231 -90.5497 106° East 495 570 37,000  Level Houston Center
Mon 05:00:24 AM 28.8858 -90.3994 106° East 495 570 37,000  Level Houston Center
Mon 05:01:24 AM 28.8472 -90.2472 106° East 499 574 37,000  Level Houston Center
Mon 05:02:24 AM 28.8078 -90.0961 107° East 499 574 37,000  Level Houston Center
Mon 05:03:24 AM 28.7697 -89.9481 106° East 493 567 37,000  Level Houston Center
Mon 05:04:24 AM 28.7303 -89.7944 106° East 502 578 37,000  Level Houston Center
Mon 05:05:24 AM 28.6911 -89.6442 107° East 499 574 37,000  Level Houston Center
Mon 05:06:24 AM 28.6522 -89.4903 106° East 507 583 37,000  Level Houston Center
Mon 05:07:25 AM 28.6119 -89.3417 107° East 502 578 37,000  Level Houston Center
Mon 05:08:25 AM 28.5731 -89.1917 106° East 496 571 37,000  Level Houston Center
Mon 05:09:25 AM 28.5331 -89.0453 107° East 491 565 37,000  Level Houston Center
Mon 05:10:25 AM 28.4942 -88.8944 106° East 495 570 37,000  Level Houston Center
Mon 05:11:25 AM 28.4536 -88.7453 107° East 497 572 37,000  Level Houston Center
Mon 05:12:25 AM 28.4142 -88.5961 107° East 494 568 37,000  Level Houston Center
Mon 05:13:25 AM 28.3739 -88.4461 107° East 497 572 37,000  Level Houston Center
Mon 05:14:26 AM 28.3333 -88.2958 107° East 498 573 37,000  Level Houston Center
Mon 05:15:26 AM 28.2919 -88.1489 108° East 494 568 37,000  Level Houston Center
Mon 05:16:26 AM 28.2525 -87.9989 107° East 496 571 37,000  Level Houston Center
Mon 05:17:26 AM 28.2114 -87.8494 107° East 499 574 37,000  Level Houston Center
Mon 05:18:26 AM 28.1706 -87.7008 107° East 496 571 37,000  Level Houston Center
Mon 05:19:26 AM 28.1294 -87.5528 107° East 495 570 37,000  Level Houston Center
Mon 05:20:27 AM 28.0886 -87.4053 107° East 493 567 37,000  Level Houston Center
Mon 05:21:04 AM 28.0519 -87.2850 109° East 502 578 37,000  Level Jacksonville Center
Mon 05:22:04 AM 28.0169 -87.1472 106° East 490 564 37,000  Level Jacksonville Center
Mon 05:23:04 AM 27.9739 -86.9997 108° East 490 564 37,000  Level Jacksonville Center
Mon 05:24:04 AM 27.9286 -86.8453 108° East 495 570 37,000  Level Jacksonville Center
Mon 05:25:04 AM 27.8889 -86.7075 108° East 490 564 37,000  Level Jacksonville Center
Mon 05:26:04 AM 27.8436 -86.5464 108° East 499 574 37,000  Level Jacksonville Center
Mon 05:27:04 AM 27.8017 -86.4019 108° East 494 568 37,000  Level Jacksonville Center
Mon 05:28:04 AM 27.7597 -86.2528 108° East 494 568 37,000  Level Jacksonville Center
Mon 05:29:04 AM 27.7156 -86.1036 108° East 494 568 37,000  Level Jacksonville Center
Mon 05:30:04 AM 27.6733 -85.9594 108° East 494 568 37,000  Level Jacksonville Center
Mon 05:31:04 AM 27.6308 -85.8106 108° East 494 568 37,000  Level Jacksonville Center
Mon 05:32:16 AM 27.5792 -85.6494 110° East 520 598 37,000  Level Miami Center
Mon 05:33:16 AM 27.5361 -85.5011 108° East 509 586 37,000  Level Miami Center
Mon 05:34:18 AM 27.4908 -85.3506 109° East 504 580 37,000  Level Miami Center
Mon 05:35:16 AM 27.4494 -85.2050 108° East 504 580 37,000  Level Miami Center
Mon 05:36:15 AM 27.4039 -85.0547 109° East 498 573 37,000  Level Miami Center
Mon 05:37:17 AM 27.3581 -84.9067 109° East 498 573 37,000  Level Miami Center
Mon 05:38:16 AM 27.3158 -84.7614 108° East 498 573 37,000  Level Miami Center
Mon 05:39:15 AM 27.2700 -84.6111 109° East 498 573 37,000  Level Miami Center
Mon 05:40:16 AM 27.2258 -84.4614 108° East 498 573 37,000  Level Miami Center
Mon 05:41:16 AM 27.1792 -84.3136 110° East 498 573 37,000  Level Miami Center
Mon 05:42:17 AM 27.1292 -84.1497 109° East 508 585 37,000  Level Miami Center
Mon 05:43:15 AM 27.0825 -84.0000 109° East 502 578 37,000  Level Miami Center
Mon 05:44:16 AM 27.0375 -83.8528 109° East 502 578 37,000  Level Miami Center
Mon 05:45:16 AM 26.9925 -83.7058 109° East 502 578 37,000  Level Miami Center
Mon 05:46:15 AM 26.9453 -83.5564 109° East 497 572 37,000  Level Miami Center
Mon 05:47:15 AM 26.8978 -83.4069 110° East 497 572 37,000  Level Miami Center
Mon 05:48:17 AM 26.8519 -83.2625 110° East 497 572 37,000  Level Miami Center
Mon 05:49:15 AM 26.8042 -83.1136 110° East 497 572 37,000 -51 Level Miami Center
Mon 05:50:15 AM 26.7606 -82.9647 108° East 497 572 36,900 -650 Descending Miami Center
Mon 05:51:15 AM 26.7103 -82.8181 111° Southeast 503 579 35,700 -1,721 Descending Miami Center
Mon 05:52:17 AM 26.6619 -82.6717 110° East 503 579 33,400 -2,400 Descending Miami Center
Mon 05:53:15 AM 26.6175 -82.5278 109° East 496 571 30,900 -2,593 Descending Miami Center
Mon 05:54:15 AM 26.5711 -82.3817 110° East 496 571 28,300 -2,450 Descending Miami Center
Mon 05:55:15 AM 26.5222 -82.2378 111° Southeast 496 571 26,000 -2,281 Descending Miami Center
Mon 05:56:16 AM 26.4811 -82.1039 109° East 483 556 23,700 -2,350 Descending Miami Center
Mon 05:57:15 AM 26.4356 -81.9719 111° Southeast 467 537 21,300 -2,319 Descending Miami Center
Mon 05:58:15 AM 26.3981 -81.8519 109° East 456 525 19,100 -2,200 Descending Miami Center
Mon 05:59:15 AM 26.3525 -81.7158 110° East 437 503 16,900 -2,083 Descending Miami Center
Mon 06:00:16 AM 26.3186 -81.6100 110° East 413 475 14,900 -1,934 Descending Miami Center
Mon 06:01:16 AM 26.2806 -81.4950 110° East 395 455 13,000 -1,916 Descending Miami Center
Mon 06:02:15 AM 26.2461 -81.3894 110° East 379 436 11,100 -1,513 Descending Miami Center
Mon 06:03:15 AM 26.2117 -81.2864 110° East 365 420 10,000 -800 Descending Miami Center
Mon 06:04:15 AM 26.1811 -81.1950 110° East 337 388 9,500 -818 Descending Miami Center
Mon 06:04:21 AM 26.1692 -81.1761 125° Southeast 297 342 9,100 -1,400 Descending Miami Center
Mon 06:05:15 AM 26.1522 -81.1083 106° East 305 351 8,100 -1,068 Descending Miami Center
Mon 06:05:34 AM 26.1364 -81.0778 120° Southeast 289 333 7,800 -1,200 Descending Miami Center
Mon 06:06:15 AM 26.1297 -81.0172 97° East 286 329 6,900 -1,475 Descending Miami Center
Mon 06:06:35 AM 26.1264 -80.9894 98° East 279 321 6,300 -1,200 Descending Miami Center
Mon 06:07:15 AM 26.1239 -80.9339 93° East 280 322 5,700 -1,100 Descending Miami Center
Mon 06:07:35 AM 26.1183 -80.9058 102° East 264 304 5,200 -700 Descending Miami Center
Mon 06:08:15 AM 26.1175 -80.8572 91° East 274 315 5,000 -197 Descending Miami Center
Mon 06:08:36 AM 26.1142 -80.8294 98° East 254 292 5,000  Level Miami Center
Mon 06:09:15 AM 26.1094 -80.7761 96° East 262 302 5,000  Level Miami Center
Mon 06:09:24 AM 26.1094 -80.7692 90° East 251 289 5,000  Level Miami Center
Mon 06:10:15 AM 26.1050 -80.7042 94° East 249 287 5,000  Level Miami Center
Mon 06:10:31 AM 26.1014 -80.6856 102° East 232 267 5,000 -500 Level Miami Center
Mon 06:11:15 AM 26.0983 -80.6347 94° East 232 267 4,500 -787 Descending Miami Center
Mon 06:11:32 AM 26.0947 -80.6161 102° East 224 258 4,200 -1,200 Descending Miami Center
Mon 06:12:15 AM 26.0939 -80.5650 91° East 226 260 3,300 -1,100 Descending Miami Center
Mon 06:12:32 AM 26.0881 -80.5489 112° Southeast 224 258 3,100 -300 Descending Miami Center
Mon 06:13:15 AM 26.0872 -80.5000 91° East 219 252 3,000 -98 Descending Miami Center
Mon 06:13:33 AM 26.0814 -80.4839 112° Southeast 204 235 3,000  Level Miami Center
Mon 06:14:15 AM 26.0783 -80.4419 95° East 203 234 3,000  Level Miami Center
Mon 06:14:33 AM 26.0744 -80.4258 105° East 193 222 3,000 76 Level Miami Center
Mon 06:15:34 AM 26.0758 -80.3656 89° East 194 223 3,100 -281 Climbing Miami Center
Mon 06:16:41 AM 26.0753 -80.3078 91° East 153 176 2,400 -661 Descending Miami Center
Mon 06:17:41 AM 26.0742 -80.2639 92° East 137 158 1,700 -694 Descending Miami Center
Mon 06:18:42 AM 26.0750 -80.2222 89° East 133 153 1,000 -689 Descending Miami Center
Mon 06:20:00 AM 26.0667 -80.1500 180° South  Level FlightAware Approximate
Mon 06:27:00 AM 26.0726 -80.1527 180° South  Level Estimated

Login

Don't have an account? Register now (free) for customized features, flight alerts, and more!